Time,TemperatureF,DewpointF,PressureIn,WindDirection,WindDirectionDegrees,WindSpeedMPH,WindSpeedGustMPH,Humidity,HourlyPrecipIn,Conditions,Clouds,dailyrainin,SoftwareType,DateUTC
2013-05-11 00:01:00,48.0,38.3,28.88,NNW,331,0.0,0.0,69,0.00,,CLR,0.00,VWS V14.00,2013-05-11 05:01:00,
2013-05-11 00:06:00,47.7,38.0,28.88,NNW,331,0.0,0.0,69,0.00,,CLR,0.00,VWS V14.00,2013-05-11 05:06:00,
2013-05-11 00:11:00,48.2,38.5,28.88,NNW,331,0.0,0.0,69,0.00,,CLR,0.00,VWS V14.00,2013-05-11 05:11:00,
2013-05-11 00:16:00,48.4,39.4,28.88,NNW,331,0.0,0.0,71,0.00,,CLR,0.00,VWS V14.00,2013-05-11 05:16:00,
2013-05-11 00:21:00,48.4,39.8,28.88,NNW,331,0.0,0.0,72,0.00,,CLR,0.00,VWS V14.00,2013-05-11 05:21:00,
2013-05-11 00:26:00,48.2,39.6,28.85,NNW,331,0.0,0.0,72,0.00,,CLR,0.00,VWS V14.00,2013-05-11 05:26:00,
2013-05-11 00:31:00,48.2,39.6,28.85,NNW,331,0.0,0.0,72,0.00,,CLR,0.00,VWS V14.00,2013-05-11 05:31:00,
2013-05-11 00:36:00,48.4,39.8,28.85,NNW,331,0.0,0.0,72,0.00,,CLR,0.00,VWS V14.00,2013-05-11 05:36:00,
2013-05-11 00:41:00,48.6,40.3,28.85,NNW,331,0.0,0.0,73,0.00,,CLR,0.00,VWS V14.00,2013-05-11 05:41:00,
2013-05-11 00:46:00,48.6,40.3,28.85,NNW,331,0.0,0.0,73,0.00,,CLR,0.00,VWS V14.00,2013-05-11 05:46:00,
2013-05-11 00:51:00,48.7,40.5,28.85,NNW,331,0.0,0.0,73,0.00,,CLR,0.00,VWS V14.00,2013-05-11 05:51:00,
2013-05-11 00:56:00,48.6,40.3,28.85,NNW,331,0.0,0.0,73,0.00,,CLR,0.00,VWS V14.00,2013-05-11 05:56:00,
2013-05-11 01:01:00,48.6,40.0,28.85,NNW,331,0.0,0.0,72,0.00,,CLR,0.00,VWS V14.00,2013-05-11 06:01:00,
2013-05-11 01:06:00,48.7,40.5,28.85,NNW,331,0.0,0.0,73,0.00,,CLR,0.00,VWS V14.00,2013-05-11 06:06:00,
2013-05-11 01:11:00,48.4,39.8,28.85,NNW,331,0.0,0.0,72,0.00,,CLR,0.00,VWS V14.00,2013-05-11 06:11:00,
2013-05-11 01:16:00,48.4,39.8,28.85,NNW,331,0.0,0.0,72,0.00,,CLR,0.00,VWS V14.00,2013-05-11 06:16:00,
2013-05-11 01:21:00,48.4,39.8,28.85,NNW,331,0.0,0.0,72,0.00,,CLR,0.00,VWS V14.00,2013-05-11 06:21:00,
2013-05-11 01:26:00,48.2,39.6,28.85,NNW,331,0.0,0.0,72,0.00,,CLR,0.00,VWS V14.00,2013-05-11 06:26:00,
2013-05-11 01:31:00,48.0,39.4,28.85,NNW,331,0.0,0.0,72,0.00,,CLR,0.00,VWS V14.00,2013-05-11 06:31:00,
2013-05-11 01:36:00,48.0,39.4,28.85,NNW,331,0.0,0.0,72,0.00,,CLR,0.00,VWS V14.00,2013-05-11 06:36:00,
2013-05-11 01:41:00,47.8,39.3,28.82,NNW,331,0.0,0.0,72,0.00,,CLR,0.00,VWS V14.00,2013-05-11 06:41:00,
2013-05-11 01:46:00,47.8,39.3,28.82,NNW,331,0.0,0.0,72,0.00,,CLR,0.00,VWS V14.00,2013-05-11 06:46:00,
2013-05-11 01:51:00,47.5,38.9,28.82,NNW,331,0.0,0.0,72,0.00,,CLR,0.00,VWS V14.00,2013-05-11 06:51:00,
2013-05-11 01:56:00,47.3,38.7,28.85,NNW,331,0.0,0.0,72,0.00,,CLR,0.00,VWS V14.00,2013-05-11 06:56:00,
2013-05-11 02:01:00,47.3,38.7,28.85,NNW,331,0.0,0.0,72,0.00,,CLR,0.00,VWS V14.00,2013-05-11 07:01:00,
2013-05-11 02:06:00,47.3,39.1,28.85,NNW,331,0.0,0.0,73,0.00,,CLR,0.00,VWS V14.00,2013-05-11 07:06:00,
2013-05-11 02:11:00,47.3,39.1,28.85,NNW,331,0.0,0.0,73,0.00,,CLR,0.00,VWS V14.00,2013-05-11 07:11:00,
2013-05-11 02:16:00,47.3,39.1,28.85,NNW,331,0.0,0.0,73,0.00,,CLR,0.00,VWS V14.00,2013-05-11 07:16:00,
2013-05-11 02:21:00,47.1,38.9,28.85,NNW,331,0.0,0.0,73,0.00,,CLR,0.00,VWS V14.00,2013-05-11 07:21:00,
2013-05-11 02:26:00,47.1,38.9,28.82,NNW,331,0.0,0.0,73,0.00,,CLR,0.00,VWS V14.00,2013-05-11 07:26:00,
2013-05-11 02:31:00,46.9,38.8,28.82,NNW,331,0.0,0.0,73,0.00,,CLR,0.00,VWS V14.00,2013-05-11 07:31:00,
2013-05-11 02:36:00,46.9,38.8,28.82,NNW,331,0.0,0.0,73,0.00,,CLR,0.00,VWS V14.00,2013-05-11 07:36:00,
2013-05-11 02:41:00,46.8,38.6,28.82,NNW,331,0.0,0.0,73,0.00,,CLR,0.00,VWS V14.00,2013-05-11 07:41:00,
2013-05-11 02:46:00,46.8,38.9,28.82,NNW,331,0.0,0.0,74,0.00,,CLR,0.00,VWS V14.00,2013-05-11 07:46:00,
2013-05-11 02:51:00,46.6,38.8,28.82,NNW,331,0.0,0.0,74,0.00,,CLR,0.00,VWS V14.00,2013-05-11 07:51:00,
2013-05-11 02:56:00,46.2,38.4,28.82,NNW,331,0.0,0.0,74,0.00,,CLR,0.00,VWS V14.00,2013-05-11 07:56:00,
2013-05-11 03:01:00,46.2,38.4,28.82,NNW,331,0.0,0.0,74,0.00,,CLR,0.00,VWS V14.00,2013-05-11 08:01:00,
2013-05-11 03:06:00,46.4,38.6,28.82,NNW,331,0.0,0.0,74,0.00,,CLR,0.00,VWS V14.00,2013-05-11 08:06:00,
2013-05-11 03:11:00,46.6,39.1,28.82,NNW,331,0.0,0.0,75,0.00,,CLR,0.00,VWS V14.00,2013-05-11 08:11:00,
2013-05-11 03:16:00,46.9,39.4,28.82,NNW,331,0.0,0.0,75,0.00,,CLR,0.00,VWS V14.00,2013-05-11 08:16:00,
2013-05-11 03:21:00,47.3,40.1,28.82,NNW,331,0.0,0.0,76,0.00,,CLR,0.00,VWS V14.00,2013-05-11 08:21:00,
2013-05-11 03:26:00,47.3,40.1,28.82,NNW,331,0.0,0.0,76,0.00,,CLR,0.00,VWS V14.00,2013-05-11 08:26:00,
2013-05-11 03:31:00,47.5,40.6,28.82,NNW,331,0.0,0.0,77,0.00,,CLR,0.00,VWS V14.00,2013-05-11 08:31:00,
2013-05-11 03:36:00,47.7,40.5,28.82,NNW,331,0.0,0.0,76,0.00,,CLR,0.00,VWS V14.00,2013-05-11 08:36:00,
2013-05-11 03:41:00,48.4,40.8,28.85,SW,217,2.2,3.6,75,0.00,,CLR,0.00,VWS V14.00,2013-05-11 08:41:00,
2013-05-11 03:46:00,50.2,37.7,28.85,SSW,209,2.2,7.2,62,0.00,,CLR,0.00,VWS V14.00,2013-05-11 08:46:00,
2013-05-11 03:51:00,53.8,31.2,28.85,SE,128,4.0,8.7,42,0.00,,CLR,0.00,VWS V14.00,2013-05-11 08:51:00,
2013-05-11 03:56:00,54.3,29.9,28.85,West,276,8.1,10.5,39,0.00,,CLR,0.00,VWS V14.00,2013-05-11 08:56:00,
2013-05-11 04:01:00,54.1,29.8,28.85,SW,219,3.1,8.3,39,0.00,,BKN110,0.00,VWS V14.00,2013-05-11 09:01:00,
2013-05-11 04:06:00,53.8,29.4,28.85,WSW,255,4.0,8.7,39,0.00,,BKN110,0.00,VWS V14.00,2013-05-11 09:06:00,
2013-05-11 04:11:00,53.6,29.9,28.88,WNW,282,3.6,5.8,40,0.00,,BKN110,0.00,VWS V14.00,2013-05-11 09:11:00,
2013-05-11 04:16:00,53.4,30.3,28.88,SW,231,6.3,8.7,41,0.00,,BKN110,0.00,VWS V14.00,2013-05-11 09:16:00,
2013-05-11 04:21:00,53.4,29.7,28.88,West,259,4.9,8.1,40,0.00,,BKN110,0.00,VWS V14.00,2013-05-11 09:21:00,
2013-05-11 04:26:00,53.2,29.6,28.88,WSW,238,10.1,13.6,40,0.00,,BKN110,0.00,VWS V14.00,2013-05-11 09:26:00,
2013-05-11 04:31:00,53.1,28.8,28.88,SW,223,6.3,7.6,39,0.00,,BKN110,0.00,VWS V14.00,2013-05-11 09:31:00,
2013-05-11 04:36:00,53.1,28.1,28.88,SSW,211,3.1,8.3,38,0.00,,BKN110,0.00,VWS V14.00,2013-05-11 09:36:00,
2013-05-11 04:41:00,52.9,27.3,28.88,NW,324,5.8,6.3,37,0.00,,BKN110,0.00,VWS V14.00,2013-05-11 09:41:00,
2013-05-11 04:46:00,52.9,26.7,28.88,West,268,6.3,11.0,36,0.00,,BKN110,0.00,VWS V14.00,2013-05-11 09:46:00,
2013-05-11 04:51:00,52.7,26.5,28.88,West,277,7.6,8.7,36,0.00,,BKN110,0.00,VWS V14.00,2013-05-11 09:51:00,
2013-05-11 04:56:00,52.3,24.1,28.88,SSW,205,4.0,11.0,33,0.00,,BKN110,0.00,VWS V14.00,2013-05-11 09:56:00,
2013-05-11 05:01:00,52.2,21.7,28.88,WSW,249,6.3,11.9,30,0.00,,FEW110,0.00,VWS V14.00,2013-05-11 10:01:00,
2013-05-11 05:06:00,51.8,20.6,28.88,WSW,257,3.6,11.9,29,0.00,,FEW110,0.00,VWS V14.00,2013-05-11 10:06:00,
2013-05-11 05:11:00,51.6,20.4,28.91,SW,217,3.1,7.6,29,0.00,,FEW110,0.00,VWS V14.00,2013-05-11 10:11:00,
2013-05-11 05:16:00,51.6,20.4,28.91,NW,304,8.3,8.7,29,0.00,,FEW110,0.00,VWS V14.00,2013-05-11 10:16:00,
2013-05-11 05:21:00,51.4,20.3,28.91,SW,222,4.0,5.4,29,0.00,,FEW110,0.00,VWS V14.00,2013-05-11 10:21:00,
2013-05-11 05:26:00,51.4,20.3,28.91,SW,222,7.2,11.0,29,0.00,,FEW110,0.00,VWS V14.00,2013-05-11 10:26:00,
2013-05-11 05:30:00,50.9,20.6,28.91,SW,228,5.4,7.6,30,0.00,,FEW110,0.00,VWS V14.00,2013-05-11 10:30:00,
2013-05-11 05:35:00,50.9,20.6,28.91,West,262,7.6,10.1,30,0.00,,FEW110,0.00,VWS V14.00,2013-05-11 10:35:00,
2013-05-11 05:40:00,50.9,20.6,28.91,SW,236,4.5,10.1,30,0.00,,FEW110,0.00,VWS V14.00,2013-05-11 10:40:00,
2013-05-11 05:45:00,50.5,19.5,28.91,West,272,7.2,12.3,29,0.00,,FEW110,0.00,VWS V14.00,2013-05-11 10:45:00,
2013-05-11 05:50:00,50.2,18.4,28.91,SSW,204,4.0,8.7,28,0.00,,FEW110,0.00,VWS V14.00,2013-05-11 10:50:00,
2013-05-11 05:55:00,49.8,18.9,28.94,SW,223,6.3,10.1,29,0.00,,FEW110,0.00,VWS V14.00,2013-05-11 10:55:00,
2013-05-11 06:00:00,49.3,17.6,28.94,NW,306,3.6,5.8,28,0.00,,SCT250,0.00,VWS V14.00,2013-05-11 11:00:00,
2013-05-11 06:05:00,48.9,17.3,28.94,WSW,254,4.9,8.7,28,0.00,,SCT250,0.00,VWS V14.00,2013-05-11 11:05:00,
2013-05-11 06:10:00,48.7,17.1,28.94,SW,236,5.4,6.3,28,0.00,,SCT250,0.00,VWS V14.00,2013-05-11 11:10:00,
2013-05-11 06:15:00,48.4,16.8,28.94,SW,217,2.2,8.1,28,0.00,,SCT250,0.00,VWS V14.00,2013-05-11 11:15:00,
2013-05-11 06:20:00,48.2,16.6,28.94,SSW,198,4.0,4.9,28,0.00,,SCT250,0.00,VWS V14.00,2013-05-11 11:20:00,
2013-05-11 06:25:00,48.7,17.1,28.94,SSW,192,6.3,8.1,28,0.00,,SCT250,0.00,VWS V14.00,2013-05-11 11:25:00,
2013-05-11 06:30:00,48.7,16.3,28.94,SSW,211,5.8,5.8,27,0.00,,SCT250,0.00,VWS V14.00,2013-05-11 11:30:00,
2013-05-11 06:35:00,48.9,16.4,28.94,SW,233,6.3,8.3,27,0.00,,SCT250,0.00,VWS V14.00,2013-05-11 11:35:00,
2013-05-11 06:40:00,49.5,16.9,28.94,WSW,246,6.3,6.3,27,0.00,,SCT250,0.00,VWS V14.00,2013-05-11 11:40:00,
2013-05-11 06:45:00,49.6,17.0,28.94,SW,225,5.4,10.5,27,0.00,,SCT250,0.00,VWS V14.00,2013-05-11 11:45:00,
2013-05-11 06:50:00,49.5,16.9,28.94,WSW,242,6.3,8.7,27,0.00,,SCT250,0.00,VWS V14.00,2013-05-11 11:50:00,
2013-05-11 06:55:00,50.4,16.8,28.97,SW,233,0.0,8.7,26,0.00,,SCT250,0.00,VWS V14.00,2013-05-11 11:55:00,
2013-05-11 07:00:00,50.0,16.5,28.97,West,267,5.8,8.3,26,0.00,,FEW250,0.00,VWS V14.00,2013-05-11 12:00:00,
2013-05-11 07:05:00,50.4,16.8,28.97,SSW,199,3.1,8.3,26,0.00,,FEW250,0.00,VWS V14.00,2013-05-11 12:05:00,
2013-05-11 07:10:00,49.6,17.0,28.97,WSW,241,8.7,8.7,27,0.00,,FEW250,0.00,VWS V14.00,2013-05-11 12:10:00,
2013-05-11 07:15:00,49.8,17.2,28.97,SW,218,8.1,10.5,27,0.00,,FEW250,0.00,VWS V14.00,2013-05-11 12:15:00,
2013-05-11 07:20:00,49.6,17.0,28.97,WSW,248,3.1,7.6,27,0.00,,FEW250,0.00,VWS V14.00,2013-05-11 12:20:00,
2013-05-11 07:25:00,50.7,17.1,28.97,West,265,5.4,10.5,26,0.00,,FEW250,0.00,VWS V14.00,2013-05-11 12:25:00,
2013-05-11 07:30:00,50.4,16.8,28.97,WSW,246,11.0,11.0,26,0.00,,FEW250,0.00,VWS V14.00,2013-05-11 12:30:00,
2013-05-11 07:35:00,50.4,16.8,28.97,WNW,294,9.6,12.8,26,0.00,,FEW250,0.00,VWS V14.00,2013-05-11 12:35:00,
2013-05-11 07:40:00,51.3,15.7,28.97,WSW,257,4.0,7.6,24,0.00,,FEW250,0.00,VWS V14.00,2013-05-11 12:40:00,
2013-05-11 07:45:00,51.6,16.0,28.97,SSW,200,0.0,11.0,24,0.00,,FEW250,0.00,VWS V14.00,2013-05-11 12:45:00,
2013-05-11 07:50:00,50.5,15.1,28.97,WSW,257,3.6,8.7,24,0.00,,FEW250,0.00,VWS V14.00,2013-05-11 12:50:00,
2013-05-11 07:55:00,51.6,16.0,28.97,WNW,287,3.1,8.7,24,0.00,,FEW250,0.00,VWS V14.00,2013-05-11 12:55:00,
2013-05-11 08:00:00,50.2,14.8,28.97,SW,218,6.3,6.3,24,0.00,,FEW250,0.00,VWS V14.00,2013-05-11 13:00:00,
2013-05-11 08:05:00,52.0,15.4,28.97,SSW,197,3.6,10.1,23,0.00,,FEW250,0.00,VWS V14.00,2013-05-11 13:05:00,
2013-05-11 08:10:00,51.3,12.7,29.00,WNW,292,5.4,13.2,21,0.00,,FEW250,0.00,VWS V14.00,2013-05-11 13:10:00,
2013-05-11 08:15:00,52.0,13.3,29.00,WNW,284,4.0,13.2,21,0.00,,FEW250,0.00,VWS V14.00,2013-05-11 13:15:00,
2013-05-11 08:20:00,51.6,13.0,29.00,WSW,250,5.8,5.8,21,0.00,,FEW250,0.00,VWS V14.00,2013-05-11 13:20:00,
2013-05-11 08:25:00,52.3,13.6,29.00,WSW,253,3.1,17.0,21,0.00,,FEW250,0.00,VWS V14.00,2013-05-11 13:25:00,
2013-05-11 08:30:00,51.3,12.7,29.00,SW,234,5.4,17.4,21,0.00,,FEW250,0.00,VWS V14.00,2013-05-11 13:30:00,
2013-05-11 08:35:00,51.3,12.7,29.00,SW,233,5.4,17.4,21,0.00,,FEW250,0.00,VWS V14.00,2013-05-11 13:35:00,
2013-05-11 08:40:00,52.3,13.6,29.00,West,269,5.8,7.2,21,0.00,,FEW250,0.00,VWS V14.00,2013-05-11 13:40:00,
2013-05-11 08:45:00,52.0,13.3,29.00,NW,305,10.5,11.0,21,0.00,,FEW250,0.00,VWS V14.00,2013-05-11 13:45:00,
2013-05-11 08:50:00,53.4,14.5,29.00,SW,227,12.8,12.8,21,0.00,,FEW250,0.00,VWS V14.00,2013-05-11 13:50:00,
2013-05-11 08:55:00,53.1,14.2,29.00,NW,306,6.7,12.8,21,0.00,,FEW250,0.00,VWS V14.00,2013-05-11 13:55:00,
2013-05-11 09:00:00,53.1,14.2,29.00,West,269,7.6,8.1,21,0.00,,FEW250,0.00,VWS V14.00,2013-05-11 14:00:00,
2013-05-11 09:05:00,53.8,13.7,29.00,WSW,255,2.7,10.5,20,0.00,,FEW250,0.00,VWS V14.00,2013-05-11 14:05:00,
2013-05-11 09:10:00,53.6,13.5,29.00,SW,225,5.4,17.0,20,0.00,,FEW250,0.00,VWS V14.00,2013-05-11 14:10:00,
2013-05-11 09:15:00,54.7,14.4,29.00,West,280,5.4,17.0,20,0.00,,FEW250,0.00,VWS V14.00,2013-05-11 14:15:00,
2013-05-11 09:20:00,55.8,15.3,29.00,SW,219,7.6,7.6,20,0.00,,FEW250,0.00,VWS V14.00,2013-05-11 14:20:00,
2013-05-11 09:25:00,55.6,15.2,29.00,NNW,331,7.6,11.0,20,0.00,,FEW250,0.00,VWS V14.00,2013-05-11 14:25:00,
2013-05-11 09:30:00,55.0,14.7,29.00,WNW,302,5.4,9.6,20,0.00,,FEW250,0.00,VWS V14.00,2013-05-11 14:30:00,
2013-05-11 09:35:00,55.4,15.0,29.00,SSW,207,5.4,12.8,20,0.00,,FEW250,0.00,VWS V14.00,2013-05-11 14:35:00,
2013-05-11 09:40:00,55.8,15.3,29.00,WSW,257,4.9,7.6,20,0.00,,FEW250,0.00,VWS V14.00,2013-05-11 14:40:00,
2013-05-11 09:45:00,54.9,14.6,29.00,WNW,297,7.6,13.2,20,0.00,,FEW250,0.00,VWS V14.00,2013-05-11 14:45:00,
2013-05-11 09:50:00,54.9,14.6,29.00,SSW,201,5.8,12.8,20,0.00,,FEW250,0.00,VWS V14.00,2013-05-11 14:50:00,
2013-05-11 09:55:00,54.5,11.9,29.00,WNW,293,14.1,14.1,18,0.00,,FEW250,0.00,VWS V14.00,2013-05-11 14:55:00,
2013-05-11 10:00:00,54.9,12.2,29.00,SSW,210,8.1,8.1,18,0.00,,FEW250,0.00,VWS V14.00,2013-05-11 15:00:00,
2013-05-11 10:05:00,54.5,11.9,29.00,NW,307,12.8,16.3,18,0.00,,FEW250,0.00,VWS V14.00,2013-05-11 15:05:00,
2013-05-11 10:10:00,57.4,15.5,29.00,WSW,247,3.1,4.9,19,0.00,,FEW250,0.00,VWS V14.00,2013-05-11 15:10:00,
2013-05-11 10:15:00,55.0,12.3,29.03,West,267,8.7,14.5,18,0.00,,FEW250,0.00,VWS V14.00,2013-05-11 15:15:00,
2013-05-11 10:20:00,55.6,11.5,29.03,WSW,250,4.0,8.1,17,0.00,,FEW250,0.00,VWS V14.00,2013-05-11 15:20:00,
2013-05-11 10:25:00,54.3,11.7,29.03,WSW,248,10.5,15.4,18,0.00,,FEW250,0.00,VWS V14.00,2013-05-11 15:25:00,
2013-05-11 10:30:00,55.8,11.6,29.03,SW,217,2.7,7.2,17,0.00,,FEW250,0.00,VWS V14.00,2013-05-11 15:30:00,
2013-05-11 10:35:00,55.0,12.3,29.03,SSW,193,6.3,23.3,18,0.00,,FEW250,0.00,VWS V14.00,2013-05-11 15:35:00,
2013-05-11 10:40:00,57.9,13.4,29.03,WNW,296,7.2,8.1,17,0.00,,FEW250,0.00,VWS V14.00,2013-05-11 15:40:00,
2013-05-11 10:45:00,55.9,11.8,29.03,SSW,210,13.6,15.0,17,0.00,,FEW250,0.00,VWS V14.00,2013-05-11 15:45:00,
2013-05-11 10:50:00,54.9,12.2,29.03,WNW,289,8.1,8.1,18,0.00,,FEW250,0.00,VWS V14.00,2013-05-11 15:50:00,
2013-05-11 10:55:00,55.6,11.5,29.03,WNW,285,8.7,17.4,17,0.00,,FEW250,0.00,VWS V14.00,2013-05-11 15:55:00,
2013-05-11 11:00:00,55.6,11.5,29.03,SW,236,7.6,17.4,17,0.00,,FEW060,0.00,VWS V14.00,2013-05-11 16:00:00,
2013-05-11 11:05:00,55.9,11.8,29.03,SW,224,3.6,19.2,17,0.00,,FEW060,0.00,VWS V14.00,2013-05-11 16:05:00,
2013-05-11 11:10:00,56.7,12.4,29.03,South,190,8.3,8.3,17,0.00,,FEW060,0.00,VWS V14.00,2013-05-11 16:10:00,
2013-05-11 11:15:00,57.2,12.8,29.03,NW,307,5.4,13.2,17,0.00,,FEW060,0.00,VWS V14.00,2013-05-11 16:15:00,
2013-05-11 11:20:00,54.7,12.0,29.03,SSW,200,10.1,14.1,18,0.00,,FEW060,0.00,VWS V14.00,2013-05-11 16:20:00,
2013-05-11 11:25:00,55.9,11.8,29.03,SW,227,9.2,17.9,17,0.00,,FEW060,0.00,VWS V14.00,2013-05-11 16:25:00,
2013-05-11 11:30:00,56.7,12.4,29.03,SSW,197,4.0,7.6,17,0.00,,FEW060,0.00,VWS V14.00,2013-05-11 16:30:00,
2013-05-11 11:35:00,56.1,11.9,29.03,SW,214,14.5,15.4,17,0.00,,FEW060,0.00,VWS V14.00,2013-05-11 16:35:00,
2013-05-11 11:40:00,56.3,12.1,29.03,WSW,258,9.2,10.5,17,0.00,,FEW060,0.00,VWS V14.00,2013-05-11 16:40:00,
2013-05-11 11:45:00,55.8,11.6,29.03,WNW,297,12.8,17.4,17,0.00,,FEW060,0.00,VWS V14.00,2013-05-11 16:45:00,
2013-05-11 11:50:00,55.9,11.8,29.03,SSW,204,5.4,12.3,17,0.00,,FEW060,0.00,VWS V14.00,2013-05-11 16:50:00,
2013-05-11 11:55:00,57.0,12.7,29.03,WNW,290,5.4,13.2,17,0.00,,FEW060,0.00,VWS V14.00,2013-05-11 16:55:00,
2013-05-11 12:00:00,56.8,12.5,29.03,SSW,197,13.2,13.2,17,0.00,,FEW060,0.00,VWS V14.00,2013-05-11 17:00:00,
2013-05-11 12:05:00,56.1,11.9,29.03,West,266,10.1,21.5,17,0.00,,FEW060,0.00,VWS V14.00,2013-05-11 17:05:00,
2013-05-11 12:10:00,57.0,12.7,29.03,WNW,295,5.4,8.3,17,0.00,,FEW060,0.00,VWS V14.00,2013-05-11 17:10:00,
2013-05-11 12:15:00,58.6,14.0,29.03,NW,319,4.0,11.9,17,0.00,,FEW060,0.00,VWS V14.00,2013-05-11 17:15:00,
2013-05-11 12:20:00,58.5,13.8,29.03,WSW,250,3.6,6.3,17,0.00,,FEW060,0.00,VWS V14.00,2013-05-11 17:20:00,
2013-05-11 12:25:00,56.8,12.5,29.03,SW,234,10.5,25.1,17,0.00,,FEW060,0.00,VWS V14.00,2013-05-11 17:25:00,
2013-05-11 12:30:00,56.7,12.4,29.03,WNW,288,6.7,15.4,17,0.00,,FEW060,0.00,VWS V14.00,2013-05-11 17:30:00,
2013-05-11 12:35:00,56.8,12.5,29.03,West,265,7.6,15.4,17,0.00,,FEW060,0.00,VWS V14.00,2013-05-11 17:35:00,
2013-05-11 12:40:00,55.9,11.8,29.03,SSW,208,12.8,12.8,17,0.00,,FEW060,0.00,VWS V14.00,2013-05-11 17:40:00,
2013-05-11 12:45:00,56.5,12.2,29.03,SW,231,8.1,14.1,17,0.00,,FEW060,0.00,VWS V14.00,2013-05-11 17:45:00,
2013-05-11 12:50:00,56.3,12.1,29.03,SW,233,12.8,12.8,17,0.00,,FEW060,0.00,VWS V14.00,2013-05-11 17:50:00,
2013-05-11 12:55:00,55.6,11.5,29.03,NW,311,8.3,17.0,17,0.00,,FEW060,0.00,VWS V14.00,2013-05-11 17:55:00,
2013-05-11 13:00:00,56.3,12.1,29.03,SSW,208,8.7,8.7,17,0.00,,FEW065,0.00,VWS V14.00,2013-05-11 18:00:00,
2013-05-11 13:05:00,56.1,11.9,29.03,SSW,198,8.3,13.2,17,0.00,,FEW065,0.00,VWS V14.00,2013-05-11 18:05:00,
2013-05-11 13:10:00,56.1,11.9,29.03,WSW,241,11.0,13.2,17,0.00,,FEW065,0.00,VWS V14.00,2013-05-11 18:10:00,
2013-05-11 13:15:00,58.3,13.7,29.03,WSW,243,7.2,15.0,17,0.00,,FEW065,0.00,VWS V14.00,2013-05-11 18:15:00,
2013-05-11 13:20:00,56.3,12.1,29.03,WSW,243,8.1,18.3,17,0.00,,FEW065,0.00,VWS V14.00,2013-05-11 18:20:00,
2013-05-11 13:25:00,57.2,12.8,29.03,NW,311,6.3,18.3,17,0.00,,FEW065,0.00,VWS V14.00,2013-05-11 18:25:00,
2013-05-11 13:30:00,56.7,12.4,29.03,SSW,199,8.1,8.3,17,0.00,,FEW065,0.00,VWS V14.00,2013-05-11 18:30:00,
2013-05-11 13:35:00,57.4,12.9,29.03,SSW,202,8.7,11.0,17,0.00,,FEW065,0.00,VWS V14.00,2013-05-11 18:35:00,
2013-05-11 13:40:00,56.8,12.5,29.03,West,270,10.1,10.1,17,0.00,,FEW065,0.00,VWS V14.00,2013-05-11 18:40:00,
2013-05-11 13:45:00,57.0,12.7,29.03,West,266,12.8,17.0,17,0.00,,FEW065,0.00,VWS V14.00,2013-05-11 18:45:00,
2013-05-11 13:50:00,57.6,13.1,29.03,WNW,301,8.3,8.3,17,0.00,,FEW065,0.00,VWS V14.00,2013-05-11 18:50:00,
2013-05-11 13:55:00,57.2,12.8,29.03,WNW,283,10.1,12.8,17,0.00,,FEW065,0.00,VWS V14.00,2013-05-11 18:55:00,
2013-05-11 14:00:00,56.8,12.5,29.03,West,277,10.1,10.1,17,0.00,,FEW065,0.00,VWS V14.00,2013-05-11 19:00:00,
2013-05-11 14:05:00,56.8,12.5,29.03,WSW,254,2.7,13.6,17,0.00,,FEW065,0.00,VWS V14.00,2013-05-11 19:05:00,
2013-05-11 14:10:00,57.2,12.8,29.03,SW,219,5.4,15.0,17,0.00,,FEW065,0.00,VWS V14.00,2013-05-11 19:10:00,
2013-05-11 14:15:00,58.3,13.7,29.03,SW,235,10.1,15.0,17,0.00,,FEW065,0.00,VWS V14.00,2013-05-11 19:15:00,
2013-05-11 14:20:00,57.6,13.1,29.03,South,188,13.2,13.2,17,0.00,,FEW065,0.00,VWS V14.00,2013-05-11 19:20:00,
2013-05-11 14:25:00,58.6,14.0,29.03,West,280,2.2,17.4,17,0.00,,FEW065,0.00,VWS V14.00,2013-05-11 19:25:00,
2013-05-11 14:30:00,57.6,13.1,29.03,WNW,296,7.2,8.1,17,0.00,,FEW065,0.00,VWS V14.00,2013-05-11 19:30:00,
2013-05-11 14:35:00,59.2,14.4,29.03,NW,306,5.4,12.3,17,0.00,,FEW065,0.00,VWS V14.00,2013-05-11 19:35:00,
2013-05-11 14:40:00,61.7,15.1,29.03,NW,308,3.1,5.8,16,0.00,,FEW065,0.00,VWS V14.00,2013-05-11 19:40:00,
2013-05-11 14:45:00,59.2,14.4,29.03,SW,221,10.5,14.5,17,0.00,,FEW065,0.00,VWS V14.00,2013-05-11 19:45:00,
2013-05-11 14:50:00,59.0,14.3,29.03,NW,305,5.8,8.7,17,0.00,,FEW065,0.00,VWS V14.00,2013-05-11 19:50:00,
2013-05-11 14:55:00,59.2,14.4,29.03,South,176,2.7,15.4,17,0.00,,FEW065,0.00,VWS V14.00,2013-05-11 19:55:00,
2013-05-11 15:00:00,60.1,15.1,29.03,SW,214,14.1,14.1,17,0.00,,FEW070,0.00,VWS V14.00,2013-05-11 20:00:00,
2013-05-11 15:05:00,58.5,13.8,29.03,WNW,294,3.6,23.3,17,0.00,,FEW070,0.00,VWS V14.00,2013-05-11 20:05:00,
2013-05-11 15:10:00,57.6,13.1,29.03,SSW,200,11.0,11.0,17,0.00,,FEW070,0.00,VWS V14.00,2013-05-11 20:10:00,
2013-05-11 15:15:00,58.6,14.0,29.03,West,265,6.3,13.2,17,0.00,,FEW070,0.00,VWS V14.00,2013-05-11 20:15:00,
2013-05-11 15:20:00,58.3,13.7,29.03,West,265,6.3,13.2,17,0.00,,FEW070,0.00,VWS V14.00,2013-05-11 20:20:00,
2013-05-11 15:25:00,58.3,13.7,29.03,WNW,282,12.3,15.4,17,0.00,,FEW070,0.00,VWS V14.00,2013-05-11 20:25:00,
2013-05-11 15:30:00,59.4,14.6,29.03,SSW,208,5.4,12.8,17,0.00,,FEW070,0.00,VWS V14.00,2013-05-11 20:30:00,
2013-05-11 15:35:00,59.4,14.6,29.03,SSW,205,3.1,17.0,17,0.00,,FEW070,0.00,VWS V14.00,2013-05-11 20:35:00,
2013-05-11 15:40:00,59.9,15.0,29.03,West,274,8.7,8.7,17,0.00,,FEW070,0.00,VWS V14.00,2013-05-11 20:40:00,
2013-05-11 15:45:00,61.9,15.2,29.03,SW,234,15.0,15.0,16,0.00,,FEW070,0.00,VWS V14.00,2013-05-11 20:45:00,
2013-05-11 15:50:00,59.7,14.9,29.03,NW,309,5.4,6.3,17,0.00,,FEW070,0.00,VWS V14.00,2013-05-11 20:50:00,
2013-05-11 15:55:00,58.6,14.0,29.03,West,280,5.4,16.3,17,0.00,,FEW070,0.00,VWS V14.00,2013-05-11 20:55:00,
2013-05-11 16:00:00,59.4,14.6,29.03,SW,219,3.1,16.3,17,0.00,,FEW075,0.00,VWS V14.00,2013-05-11 21:00:00,
2013-05-11 16:05:00,58.8,14.1,29.03,WNW,285,14.1,15.0,17,0.00,,FEW075,0.00,VWS V14.00,2013-05-11 21:05:00,
2013-05-11 16:10:00,59.7,14.9,29.03,SW,217,6.3,15.0,17,0.00,,FEW075,0.00,VWS V14.00,2013-05-11 21:10:00,
2013-05-11 16:15:00,59.9,15.0,29.03,WSW,243,8.1,12.3,17,0.00,,FEW075,0.00,VWS V14.00,2013-05-11 21:15:00,
2013-05-11 16:20:00,59.5,14.7,29.03,West,267,9.6,13.2,17,0.00,,FEW075,0.00,VWS V14.00,2013-05-11 21:20:00,
2013-05-11 16:25:00,63.0,16.1,29.03,SW,218,3.1,13.2,16,0.00,,FEW075,0.00,VWS V14.00,2013-05-11 21:25:00,
2013-05-11 16:30:00,60.4,15.4,29.03,WNW,283,8.7,8.7,17,0.00,,FEW075,0.00,VWS V14.00,2013-05-11 21:30:00,
2013-05-11 16:35:00,60.4,15.4,29.03,NW,316,11.4,12.8,17,0.00,,FEW075,0.00,VWS V14.00,2013-05-11 21:35:00,
2013-05-11 16:40:00,61.5,14.9,29.03,SW,236,4.0,5.8,16,0.00,,FEW075,0.00,VWS V14.00,2013-05-11 21:40:00,
2013-05-11 16:45:00,61.0,14.5,29.03,SSW,196,13.2,19.2,16,0.00,,FEW075,0.00,VWS V14.00,2013-05-11 21:45:00,
2013-05-11 16:50:00,60.1,15.1,29.03,SSW,193,10.5,10.5,17,0.00,,FEW075,0.00,VWS V14.00,2013-05-11 21:50:00,
2013-05-11 16:55:00,59.2,14.4,29.03,SW,219,15.0,16.3,17,0.00,,FEW075,0.00,VWS V14.00,2013-05-11 21:55:00,
2013-05-11 17:00:00,59.7,14.9,29.03,SW,232,8.3,17.4,17,0.00,,FEW075,0.00,VWS V14.00,2013-05-11 22:00:00,
2013-05-11 17:05:00,60.6,15.6,29.03,NNW,328,5.8,26.6,17,0.00,,FEW075,0.00,VWS V14.00,2013-05-11 22:05:00,
2013-05-11 17:10:00,59.9,15.0,29.03,SW,223,5.8,26.6,17,0.00,,FEW075,0.00,VWS V14.00,2013-05-11 22:10:00,
2013-05-11 17:15:00,59.5,14.7,29.03,SW,223,8.7,21.9,17,0.00,,FEW075,0.00,VWS V14.00,2013-05-11 22:15:00,
2013-05-11 17:20:00,61.5,14.9,29.03,West,264,8.1,8.1,16,0.00,,FEW075,0.00,VWS V14.00,2013-05-11 22:20:00,
2013-05-11 17:25:00,63.0,16.1,29.03,SW,234,4.0,13.2,16,0.00,,FEW075,0.00,VWS V14.00,2013-05-11 22:25:00,
2013-05-11 17:30:00,59.9,15.0,29.03,SW,223,4.0,10.5,17,0.00,,FEW075,0.00,VWS V14.00,2013-05-11 22:30:00,
2013-05-11 17:35:00,61.9,15.2,29.03,NW,311,4.9,13.2,16,0.00,,FEW075,0.00,VWS V14.00,2013-05-11 22:35:00,
2013-05-11 17:40:00,61.7,15.1,29.03,NW,307,8.3,8.3,16,0.00,,FEW075,0.00,VWS V14.00,2013-05-11 22:40:00,
2013-05-11 17:45:00,59.4,14.6,29.03,WNW,292,5.8,15.0,17,0.00,,FEW075,0.00,VWS V14.00,2013-05-11 22:45:00,
2013-05-11 17:50:00,59.4,14.6,29.03,SE,146,10.5,17.4,17,0.00,,FEW075,0.00,VWS V14.00,2013-05-11 22:50:00,
2013-05-11 17:55:00,61.0,14.5,29.03,SW,234,8.7,13.2,16,0.00,,FEW075,0.00,VWS V14.00,2013-05-11 22:55:00,
2013-05-11 18:00:00,59.2,14.4,29.03,SSW,200,6.3,13.2,17,0.00,,FEW080,0.00,VWS V14.00,2013-05-11 23:00:00,
2013-05-11 18:05:00,60.3,15.3,29.03,South,189,7.2,13.2,17,0.00,,FEW080,0.00,VWS V14.00,2013-05-11 23:05:00,
2013-05-11 18:10:00,60.4,15.4,29.03,South,172,6.7,13.2,17,0.00,,FEW080,0.00,VWS V14.00,2013-05-11 23:10:00,
2013-05-11 18:15:00,59.4,14.6,29.06,WSW,245,2.7,10.5,17,0.00,,FEW080,0.00,VWS V14.00,2013-05-11 23:15:00,
2013-05-11 18:20:00,60.1,15.1,29.06,West,276,14.1,14.1,17,0.00,,FEW080,0.00,VWS V14.00,2013-05-11 23:20:00,
2013-05-11 18:25:00,59.5,14.7,29.06,WSW,242,8.3,10.5,17,0.00,,FEW080,0.00,VWS V14.00,2013-05-11 23:25:00,
2013-05-11 18:30:00,60.3,15.3,29.03,SW,214,10.5,12.3,17,0.00,,FEW080,0.00,VWS V14.00,2013-05-11 23:30:00,
2013-05-11 18:35:00,59.9,15.0,29.03,South,189,8.3,15.0,17,0.00,,FEW080,0.00,VWS V14.00,2013-05-11 23:35:00,
2013-05-11 18:40:00,60.3,15.3,29.03,West,262,5.4,15.0,17,0.00,,FEW080,0.00,VWS V14.00,2013-05-11 23:40:00,
2013-05-11 18:45:00,60.3,15.3,29.03,SSW,211,10.5,10.5,17,0.00,,FEW080,0.00,VWS V14.00,2013-05-11 23:45:00,
2013-05-11 18:50:00,59.5,14.7,29.03,WNW,286,5.8,10.5,17,0.00,,FEW080,0.00,VWS V14.00,2013-05-11 23:50:00,
2013-05-11 18:55:00,60.1,15.1,29.03,WNW,301,5.8,8.1,17,0.00,,FEW080,0.00,VWS V14.00,2013-05-11 23:55:00,
2013-05-11 19:00:00,57.9,13.4,29.03,WSW,245,7.6,11.0,17,0.00,,CLR,0.00,VWS V14.00,2013-05-12 00:00:00,
2013-05-11 19:05:00,59.0,14.3,29.03,WNW,293,4.9,12.3,17,0.00,,CLR,0.00,VWS V14.00,2013-05-12 00:05:00,
2013-05-11 19:10:00,57.2,12.8,29.03,NW,308,10.5,12.3,17,0.00,,CLR,0.00,VWS V14.00,2013-05-12 00:10:00,
2013-05-11 19:15:00,56.7,12.4,29.03,WSW,246,10.1,19.2,17,0.00,,CLR,0.00,VWS V14.00,2013-05-12 00:15:00,
2013-05-11 19:20:00,56.7,12.4,29.03,South,181,6.3,19.2,17,0.00,,CLR,0.00,VWS V14.00,2013-05-12 00:20:00,
2013-05-11 19:25:00,57.6,13.1,29.03,WNW,285,6.3,11.9,17,0.00,,CLR,0.00,VWS V14.00,2013-05-12 00:25:00,
2013-05-11 19:30:00,56.8,12.5,29.03,SSW,202,3.6,11.9,17,0.00,,CLR,0.00,VWS V14.00,2013-05-12 00:30:00,
2013-05-11 19:35:00,55.6,11.5,29.03,South,177,5.8,8.1,17,0.00,,CLR,0.00,VWS V14.00,2013-05-12 00:35:00,
2013-05-11 19:40:00,55.2,12.5,29.03,WNW,293,8.3,13.2,18,0.00,,CLR,0.00,VWS V14.00,2013-05-12 00:40:00,
2013-05-11 19:45:00,55.2,12.5,29.06,NW,311,3.1,8.7,18,0.00,,CLR,0.00,VWS V14.00,2013-05-12 00:45:00,
2013-05-11 19:50:00,55.2,12.5,29.06,SW,225,10.1,10.1,18,0.00,,CLR,0.00,VWS V14.00,2013-05-12 00:50:00,
2013-05-11 19:55:00,53.4,11.0,29.06,SSE,151,5.8,10.1,18,0.00,,CLR,0.00,VWS V14.00,2013-05-12 00:55:00,
2013-05-11 20:00:00,52.3,10.1,29.03,SSW,203,2.7,11.0,18,0.00,,CLR,0.00,VWS V14.00,2013-05-12 01:00:00,
2013-05-11 20:05:00,51.8,9.7,29.03,SW,234,4.0,8.1,18,0.00,,CLR,0.00,VWS V14.00,2013-05-12 01:05:00,
2013-05-11 20:10:00,51.3,10.4,29.03,WNW,288,0.0,10.5,19,0.00,,CLR,0.00,VWS V14.00,2013-05-12 01:10:00,
2013-05-11 20:15:00,51.1,10.3,29.03,SW,214,3.1,8.7,19,0.00,,CLR,0.00,VWS V14.00,2013-05-12 01:15:00,
2013-05-11 20:20:00,51.4,10.6,29.03,West,272,10.1,10.1,19,0.00,,CLR,0.00,VWS V14.00,2013-05-12 01:20:00,
2013-05-11 20:25:00,51.1,10.3,29.03,WSW,249,5.8,10.5,19,0.00,,CLR,0.00,VWS V14.00,2013-05-12 01:25:00,
2013-05-11 20:30:00,50.0,9.4,29.06,SW,224,0.0,10.5,19,0.00,,CLR,0.00,VWS V14.00,2013-05-12 01:30:00,
2013-05-11 20:35:00,49.6,9.1,29.06,SW,236,2.7,6.3,19,0.00,,CLR,0.00,VWS V14.00,2013-05-12 01:35:00,
2013-05-11 20:40:00,49.5,8.9,29.06,WSW,254,0.0,6.3,19,0.00,,CLR,0.00,VWS V14.00,2013-05-12 01:40:00,
2013-05-11 20:45:00,49.1,8.6,29.06,West,267,0.0,7.2,19,0.00,,CLR,0.00,VWS V14.00,2013-05-12 01:45:00,
2013-05-11 20:50:00,49.6,9.1,29.06,SW,217,4.0,7.6,19,0.00,,CLR,0.00,VWS V14.00,2013-05-12 01:50:00,
2013-05-11 20:55:00,49.1,8.6,29.06,West,281,4.9,6.3,19,0.00,,CLR,0.00,VWS V14.00,2013-05-12 01:55:00,
2013-05-11 21:00:00,48.9,8.5,29.06,WSW,256,2.7,7.6,19,0.00,,FEW250,0.00,VWS V14.00,2013-05-12 02:00:00,
2013-05-11 21:05:00,49.5,8.9,29.06,West,266,5.8,8.1,19,0.00,,FEW250,0.00,VWS V14.00,2013-05-12 02:05:00,
2013-05-11 21:10:00,48.4,8.0,29.06,SW,233,2.7,8.1,19,0.00,,FEW250,0.00,VWS V14.00,2013-05-12 02:10:00,
2013-05-11 21:15:00,48.0,7.7,29.06,SW,224,2.2,5.4,19,0.00,,FEW250,0.00,VWS V14.00,2013-05-12 02:15:00,
2013-05-11 21:20:00,47.5,7.3,29.06,SW,235,2.7,5.4,19,0.00,,FEW250,0.00,VWS V14.00,2013-05-12 02:20:00,
2013-05-11 21:24:00,47.7,7.4,29.06,SW,233,3.6,6.3,19,0.00,,FEW250,0.00,VWS V14.00,2013-05-12 02:24:00,
2013-05-11 21:29:00,47.3,7.1,29.06,WSW,253,4.0,7.2,19,0.00,,FEW250,0.00,VWS V14.00,2013-05-12 02:29:00,
2013-05-11 21:34:00,46.8,6.7,29.06,SW,222,2.7,5.4,19,0.00,,FEW250,0.00,VWS V14.00,2013-05-12 02:34:00,
2013-05-11 21:39:00,46.9,6.8,29.06,SSW,206,3.1,5.4,19,0.00,,FEW250,0.00,VWS V14.00,2013-05-12 02:39:00,
2013-05-11 21:44:00,46.6,6.5,29.06,South,187,0.0,5.4,19,0.00,,FEW250,0.00,VWS V14.00,2013-05-12 02:44:00,
2013-05-11 21:49:00,46.2,7.4,29.06,WSW,254,2.2,5.4,20,0.00,,FEW250,0.00,VWS V14.00,2013-05-12 02:49:00,
2013-05-11 21:54:00,46.6,6.5,29.06,SW,232,5.8,5.8,19,0.00,,FEW250,0.00,VWS V14.00,2013-05-12 02:54:00,
2013-05-11 21:59:00,45.9,7.1,29.06,SW,235,3.6,5.8,20,0.00,,CLR,0.00,VWS V14.00,2013-05-12 02:59:00,
2013-05-11 22:04:00,45.5,6.8,29.06,West,279,3.1,5.4,20,0.00,,CLR,0.00,VWS V14.00,2013-05-12 03:04:00,
2013-05-11 22:09:00,45.9,7.1,29.06,SW,229,3.1,5.4,20,0.00,,CLR,0.00,VWS V14.00,2013-05-12 03:09:00,
2013-05-11 22:14:00,45.5,6.8,29.06,WSW,257,3.1,4.0,20,0.00,,CLR,0.00,VWS V14.00,2013-05-12 03:14:00,
2013-05-11 22:19:00,45.1,6.5,29.06,West,270,3.6,4.5,20,0.00,,CLR,0.00,VWS V14.00,2013-05-12 03:19:00,
2013-05-11 22:24:00,45.1,6.5,29.06,West,263,2.2,5.8,20,0.00,,CLR,0.00,VWS V14.00,2013-05-12 03:24:00,
2013-05-11 22:29:00,45.0,6.3,29.06,SW,223,2.7,5.8,20,0.00,,CLR,0.00,VWS V14.00,2013-05-12 03:29:00,
2013-05-11 22:34:00,45.0,6.3,29.06,SW,229,3.1,5.8,20,0.00,,CLR,0.00,VWS V14.00,2013-05-12 03:34:00,
2013-05-11 22:39:00,44.1,5.6,29.06,WSW,245,0.0,5.8,20,0.00,,CLR,0.00,VWS V14.00,2013-05-12 03:39:00,
2013-05-11 22:44:00,43.9,5.4,29.06,SW,227,0.0,4.9,20,0.00,,CLR,0.00,VWS V14.00,2013-05-12 03:44:00,
2013-05-11 22:49:00,43.5,5.1,29.06,SSW,204,0.0,4.9,20,0.00,,CLR,0.00,VWS V14.00,2013-05-12 03:49:00,
2013-05-11 22:54:00,42.8,4.5,29.06,WSW,248,0.0,0.0,20,0.00,,CLR,0.00,VWS V14.00,2013-05-12 03:54:00,
2013-05-11 22:59:00,42.3,5.1,29.06,WSW,239,0.0,0.0,21,0.00,,CLR,0.00,VWS V14.00,2013-05-12 03:59:00,
2013-05-11 23:01:00,42.1,5.0,29.06,WSW,239,0.0,0.0,21,0.00,,CLR,0.00,VWS V14.00,2013-05-12 04:01:00,
2013-05-11 23:06:00,41.2,4.2,29.06,WSW,239,0.0,0.0,21,0.00,,CLR,0.00,VWS V14.00,2013-05-12 04:06:00,
2013-05-11 23:11:00,40.6,3.8,29.06,WSW,239,0.0,0.0,21,0.00,,CLR,0.00,VWS V14.00,2013-05-12 04:11:00,
2013-05-11 23:16:00,39.9,3.2,29.06,WSW,239,0.0,0.0,21,0.00,,CLR,0.00,VWS V14.00,2013-05-12 04:16:00,
2013-05-11 23:21:00,39.6,2.9,29.06,WSW,239,0.0,0.0,21,0.00,,CLR,0.00,VWS V14.00,2013-05-12 04:21:00,
2013-05-11 23:26:00,39.4,2.7,29.09,WSW,239,0.0,0.0,21,0.00,,CLR,0.00,VWS V14.00,2013-05-12 04:26:00,
2013-05-11 23:31:00,39.4,4.7,29.09,WSW,239,0.0,0.0,23,0.00,,CLR,0.00,VWS V14.00,2013-05-12 04:31:00,
2013-05-11 23:36:00,39.0,5.3,29.09,WSW,239,0.0,0.0,24,0.00,,CLR,0.00,VWS V14.00,2013-05-12 04:36:00,
2013-05-11 23:41:00,39.2,7.2,29.09,WSW,239,0.0,0.0,26,0.00,,CLR,0.00,VWS V14.00,2013-05-12 04:41:00,
2013-05-11 23:46:00,39.6,7.5,29.09,WSW,239,0.0,2.2,26,0.00,,CLR,0.00,VWS V14.00,2013-05-12 04:46:00,
2013-05-11 23:51:00,39.9,5.1,29.09,WSW,238,0.0,2.2,23,0.00,,CLR,0.00,VWS V14.00,2013-05-12 04:51:00,
2013-05-11 23:56:00,40.3,5.4,29.06,WSW,238,0.0,4.0,23,0.00,,CLR,0.00,VWS V14.00,2013-05-12 04:56:00,